Terminal Aerodrome Forecast
Issued by NWS

Home | Current Version | Previous Version | Text Only | Print | Product List | Glossary On
Versions: 1 2 3 4 5 6 7 8 9 10 11 12
805
FTUS45 KREV 261139
TAFMMH
TAF
KMMH 261139Z 2612/2712 VRB03KT P6SM SCT120
     FM262100 23012G28KT P6SM SCT060 BKN150
     FM270500 23011G20KT P6SM VCSH BKN050 OVC080
     FM270900 22010G16KT 2SM -SN BKN015 OVC030=

USA.gov is the U.S. government's official web portal to all federal, state and local government web resources and services.